createdAt,value
2022-10-11T00:01:06.145Z,79.78
2022-10-11T00:05:11.955Z,79.70
2022-10-11T00:09:15.580Z,79.67
2022-10-11T00:13:17.387Z,79.79
2022-10-11T00:17:19.220Z,79.89
2022-10-11T00:21:21.321Z,80.01
2022-10-11T00:25:23.268Z,80.10
2022-10-11T00:29:25.177Z,80.18
2022-10-11T00:33:27.046Z,80.22
2022-10-11T00:37:28.920Z,80.35
2022-10-11T00:41:30.964Z,80.49
2022-10-11T00:45:35.515Z,80.60
2022-10-11T00:49:45.346Z,80.65
2022-10-11T00:53:50.381Z,80.81
2022-10-11T00:57:53.276Z,80.95
2022-10-11T01:01:55.346Z,80.93
2022-10-11T01:05:57.187Z,80.85
2022-10-11T01:09:59.136Z,80.85
2022-10-11T01:14:25.915Z,80.98
2022-10-11T01:18:40.437Z,81.31
2022-10-11T01:22:57.331Z,81.43
2022-10-11T01:27:30.597Z,81.58
2022-10-11T01:31:46.666Z,81.48
2022-10-11T01:35:51.618Z,81.52
2022-10-11T01:40:01.083Z,81.55
2022-10-11T01:44:05.033Z,81.79
2022-10-11T01:48:10.322Z,81.93
2022-10-11T01:52:12.572Z,81.95
2022-10-11T01:56:26.301Z,81.93
2022-10-11T02:00:40.236Z,81.84
2022-10-11T02:04:50.038Z,81.85
2022-10-11T02:09:04.354Z,81.88
2022-10-11T02:13:15.701Z,81.94
2022-10-11T02:17:22.405Z,81.81
2022-10-11T02:21:25.408Z,81.60
2022-10-11T02:25:29.813Z,81.48
2022-10-11T02:29:35.665Z,81.48
2022-10-11T02:33:44.538Z,81.67
2022-10-11T02:37:53.682Z,81.75
2022-10-11T02:41:59.562Z,81.91
2022-10-11T02:46:03.662Z,81.93
2022-10-11T02:50:06.282Z,81.80
2022-10-11T02:54:08.232Z,81.67
2022-10-11T02:58:10.075Z,81.79
2022-10-11T03:02:11.930Z,81.74
2022-10-11T03:06:13.834Z,81.81
2022-10-11T03:10:15.726Z,81.51
2022-10-11T03:14:17.641Z,81.84
2022-10-11T03:18:20.262Z,82.21
2022-10-11T03:22:22.160Z,82.16
2022-10-11T03:26:24.031Z,82.17
2022-10-11T03:30:26.125Z,81.97
2022-10-11T03:34:28.048Z,82.20
2022-10-11T03:38:29.905Z,82.46
2022-10-11T03:42:31.755Z,82.47
2022-10-11T03:46:33.666Z,82.84
2022-10-11T03:50:36.650Z,83.06
2022-10-11T03:54:38.503Z,83.22
2022-10-11T03:58:41.204Z,83.29
2022-10-11T04:02:43.236Z,83.11
2022-10-11T04:06:45.079Z,83.49
2022-10-11T04:10:48.114Z,83.58
2022-10-11T04:14:50.208Z,83.72
2022-10-11T04:18:52.056Z,83.68
2022-10-11T04:22:53.925Z,83.85
2022-10-11T04:26:56.073Z,83.98
2022-10-11T04:30:57.882Z,83.81
2022-10-11T04:34:59.856Z,83.71
2022-10-11T04:39:01.751Z,83.59
2022-10-11T04:43:03.750Z,83.69
2022-10-11T04:47:05.631Z,83.77
2022-10-11T04:51:08.299Z,83.91
2022-10-11T04:55:10.909Z,84.00
2022-10-11T04:59:12.805Z,83.98
2022-10-11T05:03:14.807Z,83.92
2022-10-11T05:07:16.845Z,83.99
2022-10-11T05:11:18.912Z,83.89
2022-10-11T05:15:20.724Z,83.77
2022-10-11T05:19:22.641Z,84.02
2022-10-11T05:23:24.666Z,84.13
2022-10-11T05:27:26.601Z,83.97
2022-10-11T05:31:28.673Z,84.20
2022-10-11T05:35:30.507Z,84.35
2022-10-11T05:39:32.414Z,84.63
2022-10-11T05:43:35.887Z,84.64
2022-10-11T05:47:37.877Z,84.57
2022-10-11T05:51:39.761Z,84.36
2022-10-11T05:55:42.974Z,84.60
2022-10-11T05:59:44.931Z,84.72
2022-10-11T06:03:47.610Z,84.63
2022-10-11T06:07:49.557Z,84.54
2022-10-11T06:11:51.453Z,84.67
2022-10-11T06:15:53.320Z,84.65
2022-10-11T06:19:55.489Z,84.76
2022-10-11T06:24:01.428Z,84.79
2022-10-11T06:28:03.987Z,84.78
2022-10-11T06:32:06.082Z,84.94
2022-10-11T06:36:13.697Z,85.15
2022-10-11T06:40:15.657Z,85.30
2022-10-11T06:44:17.628Z,85.32
2022-10-11T06:48:19.552Z,85.19
2022-10-11T06:52:21.620Z,85.21
2022-10-11T06:56:25.702Z,84.97
2022-10-11T07:00:27.697Z,85.02
2022-10-11T07:04:29.692Z,85.07
2022-10-11T07:08:32.543Z,85.15
2022-10-11T07:12:34.468Z,85.54
2022-10-11T07:16:37.385Z,85.75
2022-10-11T07:20:39.472Z,85.65
2022-10-11T07:24:43.017Z,85.57
2022-10-11T07:28:46.409Z,85.85
2022-10-11T07:32:48.319Z,85.39
2022-10-11T07:36:50.343Z,85.44
2022-10-11T07:40:52.485Z,85.61
2022-10-11T07:44:54.409Z,85.16
2022-10-11T07:48:56.536Z,84.74
2022-10-11T07:52:58.564Z,84.90
2022-10-11T07:57:00.522Z,84.26
2022-10-11T08:01:02.524Z,83.50
2022-10-11T08:05:04.962Z,83.41
2022-10-11T08:09:07.044Z,82.66
2022-10-11T08:13:08.911Z,82.04
2022-10-11T08:17:10.824Z,82.68
2022-10-11T08:21:16.136Z,82.31
2022-10-11T08:25:18.255Z,81.53
2022-10-11T08:29:20.201Z,80.69
2022-10-11T08:33:24.513Z,80.39
2022-10-11T08:37:26.462Z,80.51
2022-10-11T08:41:48.123Z,80.41
2022-10-11T08:45:54.729Z,80.48
2022-10-11T08:49:58.553Z,80.54
2022-10-11T08:54:07.951Z,80.27
2022-10-11T08:58:25.029Z,80.72
2022-10-11T09:03:10.568Z,79.92
2022-10-11T09:07:37.147Z,79.15
2022-10-11T09:12:00.653Z,79.11
2022-10-11T09:16:14.824Z,79.12
2022-10-11T09:20:28.710Z,78.59
2022-10-11T09:24:46.954Z,78.58
2022-10-11T09:29:03.358Z,78.76
2022-10-11T09:33:36.576Z,79.52
2022-10-11T09:37:44.020Z,78.89
2022-10-11T09:41:58.492Z,78.82
2022-10-11T09:46:00.449Z,78.56
2022-10-11T09:50:13.926Z,78.12
2022-10-11T09:54:19.225Z,77.70
2022-10-11T09:58:34.279Z,78.31
2022-10-11T10:02:47.026Z,78.53
2022-10-11T10:07:02.125Z,78.14
2022-10-11T10:11:06.708Z,77.38
2022-10-11T10:15:18.729Z,75.34
2022-10-11T10:19:21.481Z,75.81
2022-10-11T10:23:27.635Z,76.37
2022-10-11T10:27:31.371Z,75.96
2022-10-11T10:32:13.386Z,75.38
2022-10-11T10:36:27.081Z,75.73
2022-10-11T10:40:50.597Z,75.82
2022-10-11T10:44:56.464Z,76.25
2022-10-11T10:53:58.189Z,75.95
2022-10-11T10:58:06.788Z,76.03
2022-10-11T11:02:40.880Z,75.79
2022-10-11T11:06:57.663Z,75.41
2022-10-11T11:11:03.964Z,75.14
2022-10-11T11:15:27.182Z,74.96
2022-10-11T11:19:52.935Z,74.52
2022-10-11T11:24:30.358Z,74.25
2022-10-11T11:28:44.362Z,74.31
2022-10-11T11:33:18.248Z,74.41
2022-10-11T11:37:36.848Z,74.41
2022-10-11T11:41:53.385Z,74.29
2022-10-11T11:46:00.927Z,74.13
2022-10-11T11:50:21.872Z,73.54
2022-10-11T11:54:35.682Z,72.30
2022-10-11T11:58:43.510Z,72.21
2022-10-11T12:02:54.304Z,71.70
2022-10-11T12:07:15.805Z,72.02
2022-10-11T12:11:49.047Z,70.87
2022-10-11T12:16:03.442Z,70.32
2022-10-11T12:20:08.084Z,70.63
2022-10-11T12:24:09.985Z,70.88
2022-10-11T12:28:36.602Z,71.22
2022-10-11T12:32:39.022Z,71.38
2022-10-11T12:36:43.835Z,70.71
2022-10-11T12:40:47.640Z,70.48
2022-10-11T12:45:14.336Z,69.64
2022-10-11T12:49:37.405Z,68.90
2022-10-11T12:54:26.068Z,68.33
2022-10-11T12:58:37.834Z,69.11
2022-10-11T13:02:43.941Z,68.94
2022-10-11T13:06:49.406Z,67.55
2022-10-11T13:10:52.973Z,66.94
2022-10-11T13:15:06.679Z,67.16
2022-10-11T13:19:12.996Z,66.74
2022-10-11T13:23:38.497Z,66.30
2022-10-11T13:27:40.549Z,65.70
2022-10-11T13:31:45.621Z,65.51
2022-10-11T13:35:47.984Z,64.52
2022-10-11T13:39:55.357Z,64.38
2022-10-11T13:43:59.937Z,64.18
2022-10-11T13:48:02.137Z,63.01
2022-10-11T13:52:18.952Z,63.85
2022-10-11T13:56:20.893Z,64.24
2022-10-11T14:00:29.853Z,64.92
2022-10-11T14:04:40.919Z,64.97
2022-10-11T14:08:47.753Z,65.10
2022-10-11T14:13:05.092Z,65.03
2022-10-11T14:17:09.717Z,65.32
2022-10-11T14:21:34.190Z,64.84
2022-10-11T14:25:36.093Z,64.36
2022-10-11T14:29:45.651Z,64.28
2022-10-11T14:33:54.692Z,64.17
2022-10-11T14:37:57.625Z,64.13
2022-10-11T14:41:59.811Z,64.50
2022-10-11T14:46:01.830Z,64.00
2022-10-11T14:50:47.328Z,64.29
2022-10-11T14:54:49.205Z,64.16
2022-10-11T14:58:51.470Z,64.20
2022-10-11T15:02:54.043Z,64.53
2022-10-11T15:06:57.003Z,64.44
2022-10-11T15:11:03.206Z,64.52
2022-10-11T15:15:06.371Z,64.71
2022-10-11T15:19:16.120Z,64.90
2022-10-11T15:23:18.228Z,65.16
2022-10-11T15:27:24.912Z,65.42
2022-10-11T15:31:27.129Z,65.81
2022-10-11T15:35:29.568Z,65.97
2022-10-11T15:39:33.203Z,66.22
2022-10-11T15:43:35.127Z,66.44
2022-10-11T15:47:37.293Z,66.66
2022-10-11T15:51:39.692Z,66.89
2022-10-11T15:55:45.213Z,67.02
2022-10-11T15:59:47.265Z,67.39
2022-10-11T16:03:50.469Z,67.57
2022-10-11T16:07:53.754Z,67.65
2022-10-11T16:11:55.647Z,68.00
2022-10-11T16:16:00.652Z,68.36
2022-10-11T16:20:05.384Z,68.82
2022-10-11T16:24:08.521Z,69.01
2022-10-11T16:28:10.618Z,69.14
2022-10-11T16:32:12.536Z,69.24
2022-10-11T16:36:34.623Z,69.45
2022-10-11T16:40:38.468Z,69.87
2022-10-11T16:44:40.373Z,70.09
2022-10-11T16:48:42.271Z,70.40
2022-10-11T16:52:44.126Z,70.30
2022-10-11T16:56:46.853Z,69.98
2022-10-11T17:00:50.152Z,70.23
2022-10-11T17:04:53.640Z,70.50
2022-10-11T17:08:55.784Z,70.68
2022-10-11T17:12:57.655Z,70.80
2022-10-11T17:16:59.587Z,71.32
2022-10-11T17:21:06.711Z,72.00
2022-10-11T17:25:08.804Z,72.32
2022-10-11T17:29:15.761Z,72.54
2022-10-11T17:33:17.738Z,72.55
2022-10-11T17:37:20.203Z,72.62
2022-10-11T17:41:22.173Z,72.66
2022-10-11T17:45:24.062Z,72.70
2022-10-11T17:49:25.944Z,72.66
2022-10-11T17:53:28.011Z,72.69
2022-10-11T17:57:30.082Z,72.80
2022-10-11T18:01:32.450Z,72.48
2022-10-11T18:05:39.993Z,72.51
2022-10-11T18:09:42.322Z,72.59
2022-10-11T18:13:48.273Z,72.72
2022-10-11T18:17:50.672Z,72.80
2022-10-11T18:21:52.967Z,72.79
2022-10-11T18:25:55.980Z,73.16
2022-10-11T18:29:58.915Z,73.07
2022-10-11T18:34:03.317Z,73.40
2022-10-11T18:38:06.481Z,73.51
2022-10-11T18:42:09.377Z,73.69
2022-10-11T18:46:14.026Z,73.50
2022-10-11T18:50:17.048Z,73.21
2022-10-11T18:54:21.350Z,73.48
2022-10-11T18:58:23.846Z,73.56
2022-10-11T19:02:25.882Z,73.58
2022-10-11T19:06:31.484Z,73.99
2022-10-11T19:10:33.948Z,74.22
2022-10-11T19:14:36.107Z,74.06
2022-10-11T19:18:43.195Z,73.90
2022-10-11T19:22:46.068Z,74.22
2022-10-11T19:26:49.048Z,74.36
2022-10-11T19:30:50.911Z,74.52
2022-10-11T19:34:52.733Z,74.85
2022-10-11T19:38:56.256Z,75.04
2022-10-11T19:42:58.088Z,75.01
2022-10-11T19:47:05.301Z,75.03
2022-10-11T19:51:11.567Z,75.08
2022-10-11T19:55:13.520Z,75.33
2022-10-11T19:59:16.236Z,75.69
2022-10-11T20:03:21.234Z,75.74
2022-10-11T20:07:23.109Z,75.48
2022-10-11T20:11:25.372Z,75.91
2022-10-11T20:15:27.601Z,75.74
2022-10-11T20:19:31.246Z,75.82
2022-10-11T20:23:35.438Z,76.24
2022-10-11T20:27:37.558Z,76.02
2022-10-11T20:31:41.281Z,76.18
2022-10-11T20:35:43.358Z,76.26
2022-10-11T20:39:45.425Z,76.41
2022-10-11T20:43:49.949Z,76.04
2022-10-11T20:47:53.296Z,76.06
2022-10-11T20:51:55.281Z,76.06
2022-10-11T20:55:57.428Z,76.28
2022-10-11T20:59:59.567Z,76.64
2022-10-11T21:04:02.242Z,76.51
2022-10-11T21:08:04.494Z,76.70
2022-10-11T21:12:06.453Z,76.75
2022-10-11T21:16:13.189Z,76.64
2022-10-11T21:20:15.184Z,76.77
2022-10-11T21:24:17.519Z,77.45
2022-10-11T21:28:19.660Z,77.82
2022-10-11T21:32:21.495Z,77.11
2022-10-11T21:36:24.533Z,77.06
2022-10-11T21:40:26.372Z,77.13
2022-10-11T21:44:31.539Z,77.01
2022-10-11T21:48:33.354Z,77.09
2022-10-11T21:52:35.515Z,77.05
2022-10-11T21:56:37.650Z,76.91
2022-10-11T22:00:39.845Z,77.01
2022-10-11T22:04:41.745Z,77.31
2022-10-11T22:08:43.702Z,77.72
2022-10-11T22:12:45.596Z,77.81
2022-10-11T22:16:47.431Z,77.55
2022-10-11T22:20:49.350Z,77.60
2022-10-11T22:24:51.187Z,77.63
2022-10-11T22:28:53.359Z,77.79
2022-10-11T22:32:55.543Z,78.36
2022-10-11T22:36:57.380Z,78.43
2022-10-11T22:40:59.299Z,77.98
2022-10-11T22:45:01.205Z,77.79
2022-10-11T22:49:03.157Z,77.81
2022-10-11T22:53:06.112Z,78.33
2022-10-11T22:57:07.985Z,78.60
2022-10-11T23:01:13.059Z,78.51
2022-10-11T23:05:15.264Z,78.06
2022-10-11T23:09:17.058Z,77.89
2022-10-11T23:13:19.021Z,78.04
2022-10-11T23:17:20.940Z,78.32
2022-10-11T23:21:22.871Z,78.71
2022-10-11T23:25:24.748Z,78.99
2022-10-11T23:29:29.636Z,79.23
2022-10-11T23:33:31.458Z,78.78
2022-10-11T23:37:33.291Z,78.45
2022-10-11T23:41:35.139Z,78.89
2022-10-11T23:45:37.131Z,78.88
2022-10-11T23:49:39.015Z,78.49
2022-10-11T23:53:41.146Z,78.23
2022-10-11T23:57:43.121Z,78.16
